createdAt,value
2022-12-22T00:00:14.097Z,93.13
2022-12-22T00:03:29.242Z,92.98
2022-12-22T00:06:31.286Z,91.66
2022-12-22T00:09:46.127Z,92.08
2022-12-22T00:12:55.174Z,92.89
2022-12-22T00:16:04.162Z,93.69
2022-12-22T00:19:20.174Z,94.39
2022-12-22T00:22:28.816Z,93.33
2022-12-22T00:25:37.156Z,92.02
2022-12-22T00:28:52.165Z,91.16
2022-12-22T00:32:02.751Z,91.03
2022-12-22T00:35:21.138Z,90.71
2022-12-22T00:38:29.973Z,91.44
2022-12-22T00:41:45.163Z,92.32
2022-12-22T00:44:53.861Z,93.02
2022-12-22T00:48:02.141Z,94.06
2022-12-22T00:51:19.271Z,93.41
2022-12-22T00:54:23.097Z,93.91
2022-12-22T00:57:40.164Z,93.59
2022-12-22T01:00:49.244Z,93.98
2022-12-22T01:03:58.121Z,94.84
2022-12-22T01:07:14.136Z,94.29
2022-12-22T01:10:16.692Z,93.84
2022-12-22T01:13:34.141Z,93.36
2022-12-22T01:16:42.880Z,92.95
2022-12-22T01:19:52.127Z,93.03
2022-12-22T01:23:17.118Z,93.08
2022-12-22T01:26:32.169Z,93.59
2022-12-22T01:29:41.132Z,92.32
2022-12-22T01:32:49.856Z,92.35
2022-12-22T01:35:58.151Z,92.24
2022-12-22T01:39:08.023Z,92.19
2022-12-22T01:42:20.138Z,92.18
2022-12-22T01:45:38.151Z,91.74
2022-12-22T01:48:53.111Z,92.09
2022-12-22T01:51:55.798Z,93.49
2022-12-22T01:55:18.177Z,94.53
2022-12-22T01:58:49.166Z,95.31
2022-12-22T02:02:06.293Z,96.04
2022-12-22T02:05:25.157Z,96.32
2022-12-22T02:08:40.164Z,96.76
2022-12-22T02:12:15.131Z,96.23
2022-12-22T02:15:48.707Z,96.34
2022-12-22T02:19:14.145Z,95.86
2022-12-22T02:22:40.170Z,95.82
2022-12-22T02:25:59.387Z,96.15
2022-12-22T02:29:15.166Z,96.13
2022-12-22T02:32:33.137Z,96.54
2022-12-22T02:36:06.146Z,96.84
2022-12-22T02:39:26.870Z,96.78
2022-12-22T02:43:12.213Z,97.05
2022-12-22T02:46:38.141Z,97.20
2022-12-22T02:49:57.151Z,96.96
2022-12-22T02:53:15.143Z,96.75
2022-12-22T02:56:24.790Z,96.67
2022-12-22T02:59:33.139Z,96.30
2022-12-22T03:02:42.320Z,96.03
2022-12-22T03:05:51.123Z,95.95
2022-12-22T03:08:59.857Z,96.17
2022-12-22T03:12:15.164Z,95.94
2022-12-22T03:15:24.150Z,95.79
2022-12-22T03:18:32.898Z,96.71
2022-12-22T03:21:41.132Z,97.28
2022-12-22T03:24:56.142Z,97.33
2022-12-22T03:28:17.659Z,97.11
2022-12-22T03:31:35.511Z,97.55
2022-12-22T03:34:50.151Z,97.82
2022-12-22T03:37:59.124Z,97.49
2022-12-22T03:41:07.974Z,96.82
2022-12-22T03:44:16.143Z,96.83
2022-12-22T03:47:31.129Z,97.19
2022-12-22T03:50:41.141Z,97.88
2022-12-22T03:53:56.135Z,97.90
2022-12-22T03:56:58.118Z,98.75
2022-12-22T04:00:14.136Z,100.00
2022-12-22T04:03:16.280Z,100.00
2022-12-22T04:06:31.128Z,100.00
2022-12-22T04:09:33.199Z,100.00
2022-12-22T04:12:48.105Z,100.00
2022-12-22T04:15:50.239Z,100.00
2022-12-22T04:19:05.125Z,100.00
2022-12-22T04:22:07.109Z,100.00
2022-12-22T04:25:23.125Z,100.00
2022-12-22T04:28:32.197Z,100.00
2022-12-22T04:31:54.205Z,100.00
2022-12-22T04:35:10.149Z,100.00
2022-12-22T04:38:19.286Z,100.00
2022-12-22T04:44:23.765Z,100.00
2022-12-22T04:47:39.785Z,100.00
2022-12-22T04:50:57.321Z,100.00
2022-12-22T04:54:05.831Z,100.00
2022-12-22T04:57:14.512Z,100.00
2022-12-22T05:00:24.794Z,100.00
2022-12-22T05:03:39.848Z,100.00
2022-12-22T05:06:48.450Z,100.00
2022-12-22T05:09:56.774Z,100.00
2022-12-22T05:13:05.551Z,100.00
2022-12-22T05:16:19.799Z,100.00
2022-12-22T05:19:30.885Z,100.00
2022-12-22T05:22:39.808Z,100.00
2022-12-22T05:25:48.453Z,100.00
2022-12-22T05:29:03.762Z,100.00
2022-12-22T05:32:18.792Z,100.00
2022-12-22T05:35:20.856Z,100.00
2022-12-22T05:38:35.787Z,100.00
2022-12-22T05:41:37.985Z,100.00
2022-12-22T05:44:59.781Z,100.00
2022-12-22T05:48:08.751Z,100.00
2022-12-22T05:51:23.753Z,100.00
2022-12-22T05:54:32.508Z,100.00
2022-12-22T05:57:48.759Z,100.00
2022-12-22T06:01:05.761Z,100.00
2022-12-22T06:04:14.665Z,100.00
2022-12-22T06:07:23.795Z,100.00
2022-12-22T06:10:32.806Z,100.00
2022-12-22T06:13:41.781Z,100.00
2022-12-22T06:16:50.551Z,100.00
2022-12-22T06:20:05.809Z,100.00
2022-12-22T06:23:14.508Z,100.00
2022-12-22T06:26:29.759Z,100.00
2022-12-22T06:29:32.223Z,100.00
2022-12-22T06:32:47.760Z,100.00
2022-12-22T06:36:02.763Z,100.00
2022-12-22T06:39:12.745Z,100.00
2022-12-22T06:42:28.758Z,100.00
2022-12-22T06:45:42.599Z,100.00
2022-12-22T06:48:57.741Z,100.00
2022-12-22T06:52:08.363Z,100.00
2022-12-22T06:55:16.753Z,100.00
2022-12-22T06:58:31.746Z,100.00
2022-12-22T07:01:40.614Z,100.00
2022-12-22T07:04:49.777Z,100.00
2022-12-22T07:08:04.012Z,100.00
2022-12-22T07:11:23.802Z,100.00
2022-12-22T07:14:32.762Z,100.00
2022-12-22T07:17:41.427Z,100.00
2022-12-22T07:20:49.767Z,100.00
2022-12-22T07:24:04.815Z,100.00
2022-12-22T07:27:19.751Z,100.00
2022-12-22T07:30:21.767Z,100.00
2022-12-22T07:33:37.747Z,100.00
2022-12-22T07:36:39.770Z,100.00
2022-12-22T07:39:54.761Z,100.00
2022-12-22T07:42:58.076Z,100.00
2022-12-22T07:46:13.749Z,100.00
2022-12-22T07:49:22.777Z,100.00
2022-12-22T07:52:31.655Z,100.00
2022-12-22T07:55:46.779Z,100.00
2022-12-22T07:58:49.026Z,100.00
2022-12-22T08:02:03.900Z,100.00
2022-12-22T08:05:18.743Z,100.00
2022-12-22T08:08:33.755Z,100.00
2022-12-22T08:11:42.742Z,100.00
2022-12-22T08:14:51.391Z,100.00
2022-12-22T08:17:59.760Z,100.00
2022-12-22T08:21:09.007Z,100.00
2022-12-22T08:24:17.816Z,100.00
2022-12-22T08:27:39.764Z,100.00
2022-12-22T08:30:54.627Z,100.00
2022-12-22T08:34:12.759Z,100.00
2022-12-22T08:37:31.763Z,100.00
2022-12-22T08:40:43.634Z,100.00
2022-12-22T08:44:05.750Z,100.00
2022-12-22T08:47:17.212Z,100.00
2022-12-22T08:50:34.729Z,100.00
2022-12-22T08:54:04.597Z,100.00
2022-12-22T08:57:18.731Z,100.00
2022-12-22T09:00:28.281Z,100.00
2022-12-22T09:03:42.748Z,100.00
2022-12-22T09:06:45.485Z,100.00
2022-12-22T09:10:00.726Z,100.00
2022-12-22T09:13:09.821Z,100.00
2022-12-22T09:16:18.776Z,100.00
2022-12-22T09:19:27.798Z,100.00
2022-12-22T09:22:36.740Z,100.00
2022-12-22T09:25:51.731Z,100.00
2022-12-22T09:29:00.435Z,100.00
2022-12-22T09:32:15.833Z,100.00
2022-12-22T09:35:24.716Z,99.60
2022-12-22T09:38:39.764Z,99.85
2022-12-22T09:41:53.650Z,98.74
2022-12-22T09:45:21.777Z,99.92
2022-12-22T09:48:36.978Z,98.83
2022-12-22T09:51:48.727Z,99.68
2022-12-22T09:55:03.740Z,99.57
2022-12-22T09:58:20.679Z,100.00
2022-12-22T10:01:41.810Z,100.00
2022-12-22T10:05:14.823Z,100.00
2022-12-22T10:08:36.708Z,100.00
2022-12-22T10:11:38.666Z,100.00
2022-12-22T10:14:56.756Z,100.00
2022-12-22T10:18:11.182Z,100.00
2022-12-22T10:21:29.743Z,100.00
2022-12-22T10:24:38.383Z,100.00
2022-12-22T10:27:53.716Z,100.00
2022-12-22T10:31:22.748Z,100.00
2022-12-22T10:34:31.726Z,100.00
2022-12-22T10:37:47.746Z,98.02
2022-12-22T10:41:07.721Z,98.14
2022-12-22T10:44:22.726Z,99.01
2022-12-22T10:47:31.049Z,98.66
2022-12-22T10:50:56.733Z,98.42
2022-12-22T10:54:05.738Z,98.93
2022-12-22T10:57:14.465Z,98.43
2022-12-22T11:00:32.719Z,97.47
2022-12-22T11:03:47.816Z,97.78
2022-12-22T11:06:58.776Z,98.42
2022-12-22T11:10:07.721Z,99.01
2022-12-22T11:13:25.357Z,98.54
2022-12-22T11:16:52.844Z,99.34
2022-12-22T11:20:42.772Z,98.04
2022-12-22T11:23:51.425Z,97.87
2022-12-22T11:27:31.703Z,97.21
2022-12-22T11:31:16.794Z,97.75
2022-12-22T11:35:08.815Z,98.74
2022-12-22T11:38:48.735Z,98.43
2022-12-22T11:42:14.774Z,96.92
2022-12-22T11:45:51.556Z,97.10
2022-12-22T11:49:44.746Z,98.15
2022-12-22T11:53:05.030Z,98.49
2022-12-22T11:56:22.768Z,98.24
2022-12-22T11:59:49.711Z,96.75
2022-12-22T12:03:42.769Z,98.23
2022-12-22T12:07:35.696Z,97.77
2022-12-22T12:10:51.932Z,97.91
2022-12-22T12:14:05.730Z,97.96
2022-12-22T12:17:20.018Z,98.07
2022-12-22T12:20:45.753Z,99.12
2022-12-22T12:24:06.160Z,99.31
2022-12-22T12:27:38.702Z,98.83
2022-12-22T12:31:07.749Z,98.83
2022-12-22T12:34:25.697Z,98.35
2022-12-22T12:37:44.695Z,98.84
2022-12-22T12:41:10.571Z,98.35
2022-12-22T12:44:31.736Z,98.39
2022-12-22T12:47:46.682Z,98.31
2022-12-22T12:50:50.669Z,98.70
2022-12-22T12:54:36.719Z,98.81
2022-12-22T12:57:47.538Z,99.14
2022-12-22T13:00:59.006Z,99.34
2022-12-22T13:04:15.799Z,98.94
2022-12-22T13:07:56.283Z,100.00
2022-12-22T13:11:37.884Z,100.00
2022-12-22T13:14:59.717Z,100.00
2022-12-22T13:18:11.771Z,100.00
2022-12-22T13:21:52.214Z,99.61
2022-12-22T13:25:03.292Z,99.65
2022-12-22T13:28:22.687Z,99.51
2022-12-22T13:31:42.163Z,99.24
2022-12-22T13:35:32.025Z,99.71
2022-12-22T13:38:43.710Z,100.00
2022-12-22T13:41:52.707Z,100.00
2022-12-22T13:45:08.677Z,100.00
2022-12-22T13:48:50.734Z,100.00
2022-12-22T13:52:05.025Z,100.00
2022-12-22T13:55:24.753Z,100.00
2022-12-22T13:58:40.423Z,100.00
2022-12-22T14:01:57.864Z,100.00
2022-12-22T14:05:14.743Z,100.00
2022-12-22T14:08:30.712Z,100.00
2022-12-22T14:11:45.576Z,100.00
2022-12-22T14:15:06.686Z,100.00
2022-12-22T14:18:25.711Z,100.00
2022-12-22T14:21:40.691Z,100.00
2022-12-22T14:24:49.105Z,100.00
2022-12-22T14:28:04.751Z,100.00
2022-12-22T14:31:14.028Z,100.00
2022-12-22T14:34:39.720Z,100.00
2022-12-22T14:37:50.711Z,100.00
2022-12-22T14:41:00.740Z,100.00
2022-12-22T14:44:38.666Z,100.00
2022-12-22T14:47:53.716Z,100.00
2022-12-22T14:51:03.207Z,100.00
2022-12-22T14:54:11.704Z,100.00
2022-12-22T14:57:42.463Z,100.00
2022-12-22T15:01:34.826Z,100.00
2022-12-22T15:04:49.767Z,100.00
2022-12-22T15:08:08.986Z,100.00
2022-12-22T15:11:22.703Z,100.00
2022-12-22T15:14:40.730Z,100.00
2022-12-22T15:17:58.703Z,100.00
2022-12-22T15:21:13.083Z,100.00
2022-12-22T15:24:23.714Z,100.00
2022-12-22T15:27:38.755Z,100.00
2022-12-22T15:30:47.662Z,100.00
2022-12-22T15:33:56.698Z,100.00
2022-12-22T15:37:05.518Z,100.00
2022-12-22T15:40:26.817Z,100.00
2022-12-22T15:43:58.758Z,100.00
2022-12-22T15:47:14.021Z,100.00
2022-12-22T15:50:41.712Z,100.00
2022-12-22T15:53:51.479Z,100.00
2022-12-22T15:57:07.807Z,100.00
2022-12-22T16:00:22.903Z,100.00
2022-12-22T16:03:31.752Z,100.00
2022-12-22T16:06:46.725Z,100.00
2022-12-22T16:09:55.416Z,100.00
2022-12-22T16:13:06.686Z,100.00
2022-12-22T16:16:21.809Z,100.00
2022-12-22T16:19:30.507Z,100.00
2022-12-22T16:22:46.724Z,100.00
2022-12-22T16:25:49.285Z,100.00
2022-12-22T16:29:03.672Z,100.00
2022-12-22T16:32:30.220Z,100.00
2022-12-22T16:35:45.747Z,100.00
2022-12-22T16:39:00.699Z,100.00
2022-12-22T16:45:51.734Z,100.00
2022-12-22T16:49:07.709Z,100.00
2022-12-22T16:52:29.661Z,100.00
2022-12-22T16:55:44.693Z,100.00
2022-12-22T16:58:53.375Z,100.00
2022-12-22T17:02:09.844Z,100.00
2022-12-22T17:05:43.981Z,100.00
2022-12-22T17:08:59.702Z,100.00
2022-12-22T17:12:25.870Z,100.00
2022-12-22T17:15:28.346Z,100.00
2022-12-22T17:18:43.682Z,100.00
2022-12-22T17:21:47.254Z,100.00
2022-12-22T17:25:05.699Z,100.00
2022-12-22T17:28:14.421Z,100.00
2022-12-22T17:31:25.721Z,100.00
2022-12-22T17:34:40.804Z,100.00
2022-12-22T17:37:47.980Z,100.00
2022-12-22T17:41:02.699Z,100.00
2022-12-22T17:44:27.885Z,100.00
2022-12-22T17:47:43.168Z,100.00
2022-12-22T17:50:51.488Z,100.00
2022-12-22T17:54:01.714Z,100.00
2022-12-22T17:57:17.808Z,100.00
2022-12-22T18:00:36.687Z,100.00
2022-12-22T18:03:45.733Z,100.00
2022-12-22T18:07:00.701Z,100.00
2022-12-22T18:10:28.753Z,100.00
2022-12-22T18:13:30.904Z,100.00
2022-12-22T18:16:45.768Z,100.00
2022-12-22T18:19:54.801Z,100.00
2022-12-22T18:23:09.792Z,100.00
2022-12-22T18:26:31.812Z,100.00
2022-12-22T18:29:46.662Z,100.00
2022-12-22T18:32:56.681Z,100.00
2022-12-22T18:36:11.660Z,100.00
2022-12-22T18:39:30.683Z,100.00
2022-12-22T18:42:39.345Z,100.00
2022-12-22T18:45:54.682Z,100.00
2022-12-22T18:49:09.709Z,100.00
2022-12-22T18:52:19.602Z,100.00
2022-12-22T18:55:37.681Z,100.00
2022-12-22T18:58:40.870Z,100.00
2022-12-22T19:01:56.764Z,100.00
2022-12-22T19:04:59.304Z,100.00
2022-12-22T19:08:20.665Z,100.00
2022-12-22T19:11:31.599Z,100.00
2022-12-22T19:14:40.704Z,100.00
2022-12-22T19:17:51.311Z,100.00
2022-12-22T19:21:08.986Z,100.00
2022-12-22T19:24:18.026Z,100.00
2022-12-22T19:27:28.204Z,100.00
2022-12-22T19:30:44.745Z,100.00
2022-12-22T19:33:47.483Z,100.00
2022-12-22T19:37:02.640Z,100.00
2022-12-22T19:40:06.069Z,100.00
2022-12-22T19:43:24.647Z,100.00
2022-12-22T19:46:40.699Z,100.00
2022-12-22T19:49:55.659Z,100.00
2022-12-22T19:52:59.739Z,100.00
2022-12-22T19:56:29.674Z,100.00
2022-12-22T19:59:48.736Z,100.00
2022-12-22T20:02:53.675Z,100.00
2022-12-22T20:06:09.644Z,100.00
2022-12-22T20:09:18.654Z,100.00
2022-12-22T20:12:39.669Z,100.00
2022-12-22T20:15:49.716Z,100.00
2022-12-22T20:19:04.970Z,100.00
2022-12-22T20:22:18.332Z,100.00
2022-12-22T20:25:35.774Z,100.00
2022-12-22T20:28:51.660Z,100.00
2022-12-22T20:31:54.134Z,100.00
2022-12-22T20:35:10.642Z,100.00
2022-12-22T20:38:46.668Z,100.00
2022-12-22T20:41:55.649Z,100.00
2022-12-22T20:45:12.090Z,100.00
2022-12-22T20:48:41.841Z,100.00
2022-12-22T20:51:51.350Z,100.00
2022-12-22T20:55:07.660Z,100.00
2022-12-22T20:58:36.371Z,100.00
2022-12-22T21:01:53.845Z,100.00
2022-12-22T21:05:02.641Z,100.00
2022-12-22T21:08:23.385Z,100.00
2022-12-22T21:11:38.795Z,100.00
2022-12-22T21:14:47.645Z,100.00
2022-12-22T21:17:58.803Z,100.00
2022-12-22T21:21:07.629Z,100.00
2022-12-22T21:24:22.639Z,100.00
2022-12-22T21:27:37.661Z,100.00
2022-12-22T21:30:40.886Z,100.00
2022-12-22T21:33:55.694Z,100.00
2022-12-22T21:37:01.528Z,100.00
2022-12-22T21:40:28.687Z,100.00
2022-12-22T21:43:30.735Z,100.00
2022-12-22T21:46:53.797Z,100.00
2022-12-22T21:49:56.001Z,100.00
2022-12-22T21:53:33.079Z,100.00
2022-12-22T21:56:47.673Z,100.00
2022-12-22T21:59:56.633Z,100.00
2022-12-22T22:03:12.727Z,100.00
2022-12-22T22:06:21.428Z,100.00
2022-12-22T22:09:29.643Z,100.00
2022-12-22T22:12:38.528Z,100.00
2022-12-22T22:15:47.688Z,100.00
2022-12-22T22:18:56.309Z,100.00
2022-12-22T22:22:11.662Z,100.00
2022-12-22T22:25:28.642Z,100.00
2022-12-22T22:28:31.130Z,100.00
2022-12-22T22:31:46.705Z,100.00
2022-12-22T22:35:02.669Z,100.00
2022-12-22T22:38:11.679Z,100.00
2022-12-22T22:41:20.380Z,100.00
2022-12-22T22:44:28.619Z,100.00
2022-12-22T22:47:43.949Z,100.00
2022-12-22T22:50:53.642Z,100.00
2022-12-22T22:54:08.638Z,100.00
2022-12-22T22:57:23.659Z,100.00
2022-12-22T23:00:27.178Z,100.00
2022-12-22T23:03:43.683Z,100.00
2022-12-22T23:06:52.483Z,100.00
2022-12-22T23:10:01.643Z,100.00
2022-12-22T23:13:16.663Z,100.00
2022-12-22T23:16:18.735Z,100.00
2022-12-22T23:19:33.633Z,100.00
2022-12-22T23:22:42.695Z,100.00
2022-12-22T23:25:51.462Z,100.00
2022-12-22T23:29:06.623Z,100.00
2022-12-22T23:32:21.640Z,100.00
2022-12-22T23:35:30.421Z,100.00
2022-12-22T23:38:45.593Z,100.00
2022-12-22T23:42:01.657Z,100.00
2022-12-22T23:45:04.251Z,100.00
2022-12-22T23:48:25.644Z,100.00
2022-12-22T23:51:34.663Z,100.00
2022-12-22T23:54:43.622Z,100.00
2022-12-22T23:57:53.489Z,100.00
